sensor_id;sensor_type;location;lat;lon;timestamp;temperature;humidity
56103;DHT22;41970;48.774;9.280;2023-02-05T00:00:24;3.50;99.90
56103;DHT22;41970;48.774;9.280;2023-02-05T00:02:50;3.40;99.90
56103;DHT22;41970;48.774;9.280;2023-02-05T00:05:16;3.40;99.90
56103;DHT22;41970;48.774;9.280;2023-02-05T00:07:42;3.50;99.90
56103;DHT22;41970;48.774;9.280;2023-02-05T00:10:08;3.50;99.90
56103;DHT22;41970;48.774;9.280;2023-02-05T00:12:34;3.50;99.90
56103;DHT22;41970;48.774;9.280;2023-02-05T00:15:00;3.60;99.90
56103;DHT22;41970;48.774;9.280;2023-02-05T00:17:25;3.60;99.90
56103;DHT22;41970;48.774;9.280;2023-02-05T00:19:51;3.50;99.90
56103;DHT22;41970;48.774;9.280;2023-02-05T00:22:17;3.50;99.90
56103;DHT22;41970;48.774;9.280;2023-02-05T00:24:43;3.60;99.90
56103;DHT22;41970;48.774;9.280;2023-02-05T00:27:08;3.60;99.90
56103;DHT22;41970;48.774;9.280;2023-02-05T00:29:34;3.70;99.90
56103;DHT22;41970;48.774;9.280;2023-02-05T00:32:00;3.70;99.90
56103;DHT22;41970;48.774;9.280;2023-02-05T00:34:26;3.70;99.90
56103;DHT22;41970;48.774;9.280;2023-02-05T00:36:51;3.70;99.90
56103;DHT22;41970;48.774;9.280;2023-02-05T00:39:17;3.70;99.90
56103;DHT22;41970;48.774;9.280;2023-02-05T00:41:44;3.70;99.90
56103;DHT22;41970;48.774;9.280;2023-02-05T00:44:09;3.70;99.90
56103;DHT22;41970;48.774;9.280;2023-02-05T00:46:35;3.70;99.90
56103;DHT22;41970;48.774;9.280;2023-02-05T00:49:01;3.60;99.90
56103;DHT22;41970;48.774;9.280;2023-02-05T00:51:27;3.70;99.90
56103;DHT22;41970;48.774;9.280;2023-02-05T00:53:52;3.70;99.90
56103;DHT22;41970;48.774;9.280;2023-02-05T00:56:18;3.70;99.90
56103;DHT22;41970;48.774;9.280;2023-02-05T00:58:44;3.70;99.90
56103;DHT22;41970;48.774;9.280;2023-02-05T01:01:13;3.70;99.90
56103;DHT22;41970;48.774;9.280;2023-02-05T01:03:39;3.70;99.90
56103;DHT22;41970;48.774;9.280;2023-02-05T01:06:05;3.70;99.90
56103;DHT22;41970;48.774;9.280;2023-02-05T01:08:31;3.70;99.90
56103;DHT22;41970;48.774;9.280;2023-02-05T01:10:57;3.80;99.90
56103;DHT22;41970;48.774;9.280;2023-02-05T01:13:23;3.80;99.90
56103;DHT22;41970;48.774;9.280;2023-02-05T01:15:49;3.90;99.90
56103;DHT22;41970;48.774;9.280;2023-02-05T01:18:14;3.90;99.90
56103;DHT22;41970;48.774;9.280;2023-02-05T01:20:41;3.80;99.90
56103;DHT22;41970;48.774;9.280;2023-02-05T01:23:07;3.80;99.90
56103;DHT22;41970;48.774;9.280;2023-02-05T01:25:34;4.00;99.90
56103;DHT22;41970;48.774;9.280;2023-02-05T01:27:59;4.00;99.90
56103;DHT22;41970;48.774;9.280;2023-02-05T01:30:25;4.10;99.90
56103;DHT22;41970;48.774;9.280;2023-02-05T01:32:51;4.10;99.90
56103;DHT22;41970;48.774;9.280;2023-02-05T01:35:17;3.90;99.90
56103;DHT22;41970;48.774;9.280;2023-02-05T01:37:43;3.90;99.90
56103;DHT22;41970;48.774;9.280;2023-02-05T01:40:13;4.00;99.90
56103;DHT22;41970;48.774;9.280;2023-02-05T01:42:40;3.90;99.90
56103;DHT22;41970;48.774;9.280;2023-02-05T01:47:55;3.80;99.90
56103;DHT22;41970;48.774;9.280;2023-02-05T01:50:28;3.80;99.90
56103;DHT22;41970;48.774;9.280;2023-02-05T01:52:57;3.80;99.90
56103;DHT22;41970;48.774;9.280;2023-02-05T01:55:23;3.80;99.90
56103;DHT22;41970;48.774;9.280;2023-02-05T01:57:53;3.80;99.90
56103;DHT22;41970;48.774;9.280;2023-02-05T02:00:23;3.80;99.90
56103;DHT22;41970;48.774;9.280;2023-02-05T02:02:52;3.80;99.90
56103;DHT22;41970;48.774;9.280;2023-02-05T02:05:19;3.80;99.90
56103;DHT22;41970;48.774;9.280;2023-02-05T02:07:45;3.80;99.90
56103;DHT22;41970;48.774;9.280;2023-02-05T02:10:13;3.80;99.90
56103;DHT22;41970;48.774;9.280;2023-02-05T02:12:41;3.80;99.90
56103;DHT22;41970;48.774;9.280;2023-02-05T02:15:17;3.90;99.90
56103;DHT22;41970;48.774;9.280;2023-02-05T02:17:46;3.90;99.90
56103;DHT22;41970;48.774;9.280;2023-02-05T02:20:35;3.80;99.90
56103;DHT22;41970;48.774;9.280;2023-02-05T02:23:56;3.70;99.90
56103;DHT22;41970;48.774;9.280;2023-02-05T02:29:02;3.40;99.90
56103;DHT22;41970;48.774;9.280;2023-02-05T02:34:10;3.50;99.90
56103;DHT22;41970;48.774;9.280;2023-02-05T02:39:20;3.60;99.90
56103;DHT22;41970;48.774;9.280;2023-02-05T02:42:14;3.70;99.90
56103;DHT22;41970;48.774;9.280;2023-02-05T02:44:45;3.80;99.90
56103;DHT22;41970;48.774;9.280;2023-02-05T02:47:19;3.90;99.90
56103;DHT22;41970;48.774;9.280;2023-02-05T02:49:58;3.80;99.90
56103;DHT22;41970;48.774;9.280;2023-02-05T02:52:26;3.70;99.90
56103;DHT22;41970;48.774;9.280;2023-02-05T02:54:56;3.70;99.90
56103;DHT22;41970;48.774;9.280;2023-02-05T02:57:26;3.70;99.90
56103;DHT22;41970;48.774;9.280;2023-02-05T02:59:57;3.60;99.90
56103;DHT22;41970;48.774;9.280;2023-02-05T03:02:25;3.70;99.90
56103;DHT22;41970;48.774;9.280;2023-02-05T03:05:01;3.70;99.90
56103;DHT22;41970;48.774;9.280;2023-02-05T03:07:34;3.70;99.90
56103;DHT22;41970;48.774;9.280;2023-02-05T03:10:07;3.60;99.90
56103;DHT22;41970;48.774;9.280;2023-02-05T03:12:34;3.60;99.90
56103;DHT22;41970;48.774;9.280;2023-02-05T03:15:00;3.60;99.90
56103;DHT22;41970;48.774;9.280;2023-02-05T03:17:26;3.60;99.90
56103;DHT22;41970;48.774;9.280;2023-02-05T03:20:00;3.60;99.90
56103;DHT22;41970;48.774;9.280;2023-02-05T03:22:27;3.60;99.90
56103;DHT22;41970;48.774;9.280;2023-02-05T03:24:53;3.70;99.90
56103;DHT22;41970;48.774;9.280;2023-02-05T03:27:20;3.80;99.90
56103;DHT22;41970;48.774;9.280;2023-02-05T03:29:46;3.80;99.90
56103;DHT22;41970;48.774;9.280;2023-02-05T03:37:37;3.70;99.90
56103;DHT22;41970;48.774;9.280;2023-02-05T03:45:31;3.80;99.90
56103;DHT22;41970;48.774;9.280;2023-02-05T03:59:22;3.80;99.90
56103;DHT22;41970;48.774;9.280;2023-02-05T04:01:49;3.70;99.90
56103;DHT22;41970;48.774;9.280;2023-02-05T04:04:15;3.70;99.90
56103;DHT22;41970;48.774;9.280;2023-02-05T04:06:41;3.60;99.90
56103;DHT22;41970;48.774;9.280;2023-02-05T04:09:09;3.70;99.90
56103;DHT22;41970;48.774;9.280;2023-02-05T04:11:35;3.70;99.90
56103;DHT22;41970;48.774;9.280;2023-02-05T04:14:02;3.70;99.90
56103;DHT22;41970;48.774;9.280;2023-02-05T04:16:28;3.80;99.90
56103;DHT22;41970;48.774;9.280;2023-02-05T04:18:53;3.90;99.90
56103;DHT22;41970;48.774;9.280;2023-02-05T04:21:19;3.90;99.90
56103;DHT22;41970;48.774;9.280;2023-02-05T04:23:45;3.90;99.90
56103;DHT22;41970;48.774;9.280;2023-02-05T04:26:11;3.80;99.90
56103;DHT22;41970;48.774;9.280;2023-02-05T04:28:36;3.70;99.90
56103;DHT22;41970;48.774;9.280;2023-02-05T04:31:06;3.60;99.90
56103;DHT22;41970;48.774;9.280;2023-02-05T04:33:32;3.60;99.90
56103;DHT22;41970;48.774;9.280;2023-02-05T04:35:59;3.60;99.90
56103;DHT22;41970;48.774;9.280;2023-02-05T04:38:25;3.60;99.90
56103;DHT22;41970;48.774;9.280;2023-02-05T04:40:51;3.60;99.90
56103;DHT22;41970;48.774;9.280;2023-02-05T04:43:17;3.50;99.90
56103;DHT22;41970;48.774;9.280;2023-02-05T04:45:43;3.50;99.90
56103;DHT22;41970;48.774;9.280;2023-02-05T04:48:08;3.50;99.90
56103;DHT22;41970;48.774;9.280;2023-02-05T04:50:36;3.50;99.90
56103;DHT22;41970;48.774;9.280;2023-02-05T04:53:01;3.50;99.90
56103;DHT22;41970;48.774;9.280;2023-02-05T04:55:28;3.50;99.90
56103;DHT22;41970;48.774;9.280;2023-02-05T04:57:53;3.50;99.90
56103;DHT22;41970;48.774;9.280;2023-02-05T05:00:19;3.40;99.90
56103;DHT22;41970;48.774;9.280;2023-02-05T05:02:45;3.40;99.90
56103;DHT22;41970;48.774;9.280;2023-02-05T05:05:10;3.40;99.90
56103;DHT22;41970;48.774;9.280;2023-02-05T05:07:37;3.40;99.90
56103;DHT22;41970;48.774;9.280;2023-02-05T05:10:03;3.40;99.90
56103;DHT22;41970;48.774;9.280;2023-02-05T05:12:32;3.40;99.90
56103;DHT22;41970;48.774;9.280;2023-02-05T05:14:58;3.30;99.90
56103;DHT22;41970;48.774;9.280;2023-02-05T05:17:23;3.40;99.90
56103;DHT22;41970;48.774;9.280;2023-02-05T05:19:49;3.30;99.90
56103;DHT22;41970;48.774;9.280;2023-02-05T05:22:15;3.30;99.90
56103;DHT22;41970;48.774;9.280;2023-02-05T05:24:40;3.30;99.90
56103;DHT22;41970;48.774;9.280;2023-02-05T05:27:06;3.20;99.90
56103;DHT22;41970;48.774;9.280;2023-02-05T05:29:32;3.30;99.90
56103;DHT22;41970;48.774;9.280;2023-02-05T05:31:58;3.20;99.90
56103;DHT22;41970;48.774;9.280;2023-02-05T05:34:23;3.20;99.90
56103;DHT22;41970;48.774;9.280;2023-02-05T05:36:49;3.10;99.90
56103;DHT22;41970;48.774;9.280;2023-02-05T05:39:15;3.00;99.90
56103;DHT22;41970;48.774;9.280;2023-02-05T05:41:59;3.00;99.90
56103;DHT22;41970;48.774;9.280;2023-02-05T05:44:43;3.10;99.90
56103;DHT22;41970;48.774;9.280;2023-02-05T05:47:09;3.20;99.90
56103;DHT22;41970;48.774;9.280;2023-02-05T05:49:35;3.20;99.90
56103;DHT22;41970;48.774;9.280;2023-02-05T05:52:00;3.20;99.90
56103;DHT22;41970;48.774;9.280;2023-02-05T05:54:26;3.10;99.90
56103;DHT22;41970;48.774;9.280;2023-02-05T05:56:52;3.00;99.90
56103;DHT22;41970;48.774;9.280;2023-02-05T05:59:17;3.00;99.90
56103;DHT22;41970;48.774;9.280;2023-02-05T06:01:43;3.00;99.90
56103;DHT22;41970;48.774;9.280;2023-02-05T06:04:09;3.00;99.90
56103;DHT22;41970;48.774;9.280;2023-02-05T06:06:35;3.10;99.90
56103;DHT22;41970;48.774;9.280;2023-02-05T06:09:01;3.10;99.90
56103;DHT22;41970;48.774;9.280;2023-02-05T06:11:26;3.10;99.90
56103;DHT22;41970;48.774;9.280;2023-02-05T06:13:52;3.20;99.90
56103;DHT22;41970;48.774;9.280;2023-02-05T06:16:18;3.30;99.90
56103;DHT22;41970;48.774;9.280;2023-02-05T06:18:43;3.40;99.90
56103;DHT22;41970;48.774;9.280;2023-02-05T06:21:09;3.40;99.90
56103;DHT22;41970;48.774;9.280;2023-02-05T06:23:35;3.40;99.90
56103;DHT22;41970;48.774;9.280;2023-02-05T06:26:01;3.40;99.90
56103;DHT22;41970;48.774;9.280;2023-02-05T06:28:26;3.40;99.90
56103;DHT22;41970;48.774;9.280;2023-02-05T06:30:52;3.40;99.90
56103;DHT22;41970;48.774;9.280;2023-02-05T06:33:18;3.40;99.90
56103;DHT22;41970;48.774;9.280;2023-02-05T06:35:44;3.40;99.90
56103;DHT22;41970;48.774;9.280;2023-02-05T06:38:09;3.40;99.90
56103;DHT22;41970;48.774;9.280;2023-02-05T06:40:35;3.30;99.90
56103;DHT22;41970;48.774;9.280;2023-02-05T06:43:01;3.40;99.90
56103;DHT22;41970;48.774;9.280;2023-02-05T06:45:27;3.30;99.90
56103;DHT22;41970;48.774;9.280;2023-02-05T06:47:53;3.40;99.90
56103;DHT22;41970;48.774;9.280;2023-02-05T06:50:21;3.40;99.90
56103;DHT22;41970;48.774;9.280;2023-02-05T06:52:47;3.30;99.90
56103;DHT22;41970;48.774;9.280;2023-02-05T06:55:12;3.30;99.90
56103;DHT22;41970;48.774;9.280;2023-02-05T06:57:38;3.40;99.90
56103;DHT22;41970;48.774;9.280;2023-02-05T07:00:05;3.40;99.90
56103;DHT22;41970;48.774;9.280;2023-02-05T07:02:31;3.30;99.90
56103;DHT22;41970;48.774;9.280;2023-02-05T07:04:56;3.30;99.90
56103;DHT22;41970;48.774;9.280;2023-02-05T07:07:22;3.40;99.90
56103;DHT22;41970;48.774;9.280;2023-02-05T07:09:48;3.40;99.90
56103;DHT22;41970;48.774;9.280;2023-02-05T07:12:14;3.30;99.90
56103;DHT22;41970;48.774;9.280;2023-02-05T07:14:40;3.40;99.90
56103;DHT22;41970;48.774;9.280;2023-02-05T07:17:07;3.40;99.90
56103;DHT22;41970;48.774;9.280;2023-02-05T07:19:33;3.50;99.90
56103;DHT22;41970;48.774;9.280;2023-02-05T07:21:59;3.70;99.90
56103;DHT22;41970;48.774;9.280;2023-02-05T07:24:25;3.70;99.90
56103;DHT22;41970;48.774;9.280;2023-02-05T07:26:51;3.60;99.90
56103;DHT22;41970;48.774;9.280;2023-02-05T07:29:16;3.40;99.90
56103;DHT22;41970;48.774;9.280;2023-02-05T07:31:43;3.40;99.90
56103;DHT22;41970;48.774;9.280;2023-02-05T07:34:09;3.40;99.90
56103;DHT22;41970;48.774;9.280;2023-02-05T07:36:35;3.30;99.90
56103;DHT22;41970;48.774;9.280;2023-02-05T07:39:00;3.30;99.90
56103;DHT22;41970;48.774;9.280;2023-02-05T07:41:26;3.30;99.90
56103;DHT22;41970;48.774;9.280;2023-02-05T07:43:53;3.20;99.90
56103;DHT22;41970;48.774;9.280;2023-02-05T07:46:20;3.40;99.90
56103;DHT22;41970;48.774;9.280;2023-02-05T07:48:46;3.50;99.90
56103;DHT22;41970;48.774;9.280;2023-02-05T07:51:18;3.60;99.90
56103;DHT22;41970;48.774;9.280;2023-02-05T07:53:44;3.60;99.90
56103;DHT22;41970;48.774;9.280;2023-02-05T07:56:10;3.70;99.90
56103;DHT22;41970;48.774;9.280;2023-02-05T07:58:36;3.60;99.90
56103;DHT22;41970;48.774;9.280;2023-02-05T08:01:03;3.60;99.90
56103;DHT22;41970;48.774;9.280;2023-02-05T08:03:29;3.70;99.90
56103;DHT22;41970;48.774;9.280;2023-02-05T08:05:55;3.80;99.90
56103;DHT22;41970;48.774;9.280;2023-02-05T08:08:21;3.90;99.90
56103;DHT22;41970;48.774;9.280;2023-02-05T08:10:47;3.80;99.90
56103;DHT22;41970;48.774;9.280;2023-02-05T08:13:13;3.80;99.90
56103;DHT22;41970;48.774;9.280;2023-02-05T08:15:39;3.80;99.90
56103;DHT22;41970;48.774;9.280;2023-02-05T08:18:05;3.80;99.90
56103;DHT22;41970;48.774;9.280;2023-02-05T08:20:31;3.90;99.90
56103;DHT22;41970;48.774;9.280;2023-02-05T08:22:56;4.00;99.90
56103;DHT22;41970;48.774;9.280;2023-02-05T08:25:22;4.00;99.90
56103;DHT22;41970;48.774;9.280;2023-02-05T08:27:48;3.90;99.90
56103;DHT22;41970;48.774;9.280;2023-02-05T08:30:15;3.90;99.90
56103;DHT22;41970;48.774;9.280;2023-02-05T08:32:46;3.90;99.90
56103;DHT22;41970;48.774;9.280;2023-02-05T08:35:13;3.90;99.90
56103;DHT22;41970;48.774;9.280;2023-02-05T08:37:38;3.90;99.90
56103;DHT22;41970;48.774;9.280;2023-02-05T08:40:04;3.90;99.90
56103;DHT22;41970;48.774;9.280;2023-02-05T08:42:30;3.90;99.90
56103;DHT22;41970;48.774;9.280;2023-02-05T08:44:56;4.10;99.90
56103;DHT22;41970;48.774;9.280;2023-02-05T08:47:23;4.10;99.90
56103;DHT22;41970;48.774;9.280;2023-02-05T08:49:49;4.20;99.90
56103;DHT22;41970;48.774;9.280;2023-02-05T08:52:15;4.10;99.90
56103;DHT22;41970;48.774;9.280;2023-02-05T08:54:41;4.00;99.90
56103;DHT22;41970;48.774;9.280;2023-02-05T08:57:07;4.10;99.90
56103;DHT22;41970;48.774;9.280;2023-02-05T08:59:33;4.10;99.90
56103;DHT22;41970;48.774;9.280;2023-02-05T09:02:00;4.10;99.90
56103;DHT22;41970;48.774;9.280;2023-02-05T09:04:26;4.20;99.90
56103;DHT22;41970;48.774;9.280;2023-02-05T09:06:52;4.20;99.90
56103;DHT22;41970;48.774;9.280;2023-02-05T09:09:18;4.00;99.90
56103;DHT22;41970;48.774;9.280;2023-02-05T09:11:45;3.90;99.90
56103;DHT22;41970;48.774;9.280;2023-02-05T09:14:12;4.00;99.90
56103;DHT22;41970;48.774;9.280;2023-02-05T09:16:38;4.00;99.90
56103;DHT22;41970;48.774;9.280;2023-02-05T09:19:04;4.10;99.90
56103;DHT22;41970;48.774;9.280;2023-02-05T09:21:30;4.20;99.90
56103;DHT22;41970;48.774;9.280;2023-02-05T09:23:56;4.20;99.90
56103;DHT22;41970;48.774;9.280;2023-02-05T09:26:23;4.20;99.90
56103;DHT22;41970;48.774;9.280;2023-02-05T09:28:48;4.30;99.90
56103;DHT22;41970;48.774;9.280;2023-02-05T09:31:16;4.30;99.90
56103;DHT22;41970;48.774;9.280;2023-02-05T09:33:43;4.30;99.90
56103;DHT22;41970;48.774;9.280;2023-02-05T09:36:13;4.30;99.90
56103;DHT22;41970;48.774;9.280;2023-02-05T09:38:40;4.20;99.90
56103;DHT22;41970;48.774;9.280;2023-02-05T09:51:50;4.20;99.90
56103;DHT22;41970;48.774;9.280;2023-02-05T09:54:29;4.30;99.90
56103;DHT22;41970;48.774;9.280;2023-02-05T09:56:59;4.50;99.90
56103;DHT22;41970;48.774;9.280;2023-02-05T09:59:28;4.70;99.90
56103;DHT22;41970;48.774;9.280;2023-02-05T10:01:57;4.80;99.90
56103;DHT22;41970;48.774;9.280;2023-02-05T10:04:24;4.90;99.90
56103;DHT22;41970;48.774;9.280;2023-02-05T10:12:24;4.40;99.90
56103;DHT22;41970;48.774;9.280;2023-02-05T10:20:47;4.30;99.90
56103;DHT22;41970;48.774;9.280;2023-02-05T10:26:14;4.20;99.90
56103;DHT22;41970;48.774;9.280;2023-02-05T10:36:32;4.00;99.90
56103;DHT22;41970;48.774;9.280;2023-02-05T10:38:58;3.90;99.90
56103;DHT22;41970;48.774;9.280;2023-02-05T10:41:42;3.80;99.90
56103;DHT22;41970;48.774;9.280;2023-02-05T10:44:13;3.80;99.90
56103;DHT22;41970;48.774;9.280;2023-02-05T10:46:41;4.00;99.90
56103;DHT22;41970;48.774;9.280;2023-02-05T10:49:22;4.10;99.90
56103;DHT22;41970;48.774;9.280;2023-02-05T10:51:49;4.20;99.90
56103;DHT22;41970;48.774;9.280;2023-02-05T10:56:40;4.20;99.90
56103;DHT22;41970;48.774;9.280;2023-02-05T11:02:08;4.20;99.90
56103;DHT22;41970;48.774;9.280;2023-02-05T11:05:14;4.40;99.90
56103;DHT22;41970;48.774;9.280;2023-02-05T11:07:52;4.60;99.90
56103;DHT22;41970;48.774;9.280;2023-02-05T11:10:30;4.80;99.90
56103;DHT22;41970;48.774;9.280;2023-02-05T11:13:02;4.80;99.90
56103;DHT22;41970;48.774;9.280;2023-02-05T11:15:31;5.00;99.90
56103;DHT22;41970;48.774;9.280;2023-02-05T11:18:03;5.10;99.90
56103;DHT22;41970;48.774;9.280;2023-02-05T11:20:34;4.90;99.90
56103;DHT22;41970;48.774;9.280;2023-02-05T11:23:18;4.70;99.90
56103;DHT22;41970;48.774;9.280;2023-02-05T11:26:17;4.50;99.90
56103;DHT22;41970;48.774;9.280;2023-02-05T11:28:44;4.30;99.90
56103;DHT22;41970;48.774;9.280;2023-02-05T11:31:32;4.30;99.90
56103;DHT22;41970;48.774;9.280;2023-02-05T11:34:10;4.20;99.90
56103;DHT22;41970;48.774;9.280;2023-02-05T11:36:56;4.30;99.90
56103;DHT22;41970;48.774;9.280;2023-02-05T11:39:37;4.50;99.90
56103;DHT22;41970;48.774;9.280;2023-02-05T11:42:17;4.60;99.90
56103;DHT22;41970;48.774;9.280;2023-02-05T11:44:52;4.80;99.90
56103;DHT22;41970;48.774;9.280;2023-02-05T11:47:38;4.90;99.90
56103;DHT22;41970;48.774;9.280;2023-02-05T11:50:17;5.00;99.90
56103;DHT22;41970;48.774;9.280;2023-02-05T11:52:46;5.20;99.90
56103;DHT22;41970;48.774;9.280;2023-02-05T11:55:27;5.10;99.90
56103;DHT22;41970;48.774;9.280;2023-02-05T11:58:05;5.00;99.90
56103;DHT22;41970;48.774;9.280;2023-02-05T12:00:32;5.00;99.90
56103;DHT22;41970;48.774;9.280;2023-02-05T12:03:18;5.10;99.90
56103;DHT22;41970;48.774;9.280;2023-02-05T12:05:51;5.20;99.90
56103;DHT22;41970;48.774;9.280;2023-02-05T12:11:12;5.20;99.90
56103;DHT22;41970;48.774;9.280;2023-02-05T12:19:40;5.50;99.90
56103;DHT22;41970;48.774;9.280;2023-02-05T12:22:46;5.60;99.90
56103;DHT22;41970;48.774;9.280;2023-02-05T12:25:22;5.60;99.90
56103;DHT22;41970;48.774;9.280;2023-02-05T12:30:33;5.30;99.90
56103;DHT22;41970;48.774;9.280;2023-02-05T12:35:48;5.10;99.90
56103;DHT22;41970;48.774;9.280;2023-02-05T12:41:32;5.20;99.90
56103;DHT22;41970;48.774;9.280;2023-02-05T12:58:21;5.60;99.90
56103;DHT22;41970;48.774;9.280;2023-02-05T13:00:56;5.60;99.90
56103;DHT22;41970;48.774;9.280;2023-02-05T13:03:29;5.60;99.90
56103;DHT22;41970;48.774;9.280;2023-02-05T13:06:01;5.60;99.90
56103;DHT22;41970;48.774;9.280;2023-02-05T13:08:50;5.60;99.90
56103;DHT22;41970;48.774;9.280;2023-02-05T13:11:28;5.60;99.90
56103;DHT22;41970;48.774;9.280;2023-02-05T13:14:18;5.50;99.90
56103;DHT22;41970;48.774;9.280;2023-02-05T13:16:53;5.10;99.90
56103;DHT22;41970;48.774;9.280;2023-02-05T13:19:47;4.90;99.90
56103;DHT22;41970;48.774;9.280;2023-02-05T13:22:23;4.80;99.90
56103;DHT22;41970;48.774;9.280;2023-02-05T13:25:23;4.60;99.90
56103;DHT22;41970;48.774;9.280;2023-02-05T13:30:58;4.60;99.90
56103;DHT22;41970;48.774;9.280;2023-02-05T13:33:26;4.80;99.90
56103;DHT22;41970;48.774;9.280;2023-02-05T13:42:54;5.30;99.90
56103;DHT22;41970;48.774;9.280;2023-02-05T13:57:10;5.30;99.90
56103;DHT22;41970;48.774;9.280;2023-02-05T13:59:44;5.40;99.90
56103;DHT22;41970;48.774;9.280;2023-02-05T14:02:39;5.60;99.90
56103;DHT22;41970;48.774;9.280;2023-02-05T14:05:06;5.70;99.90
56103;DHT22;41970;48.774;9.280;2023-02-05T14:07:37;5.70;99.90
56103;DHT22;41970;48.774;9.280;2023-02-05T14:10:04;5.70;99.90
56103;DHT22;41970;48.774;9.280;2023-02-05T14:12:37;5.80;99.90
56103;DHT22;41970;48.774;9.280;2023-02-05T14:22:51;5.30;99.90
56103;DHT22;41970;48.774;9.280;2023-02-05T14:30:56;5.20;99.90
56103;DHT22;41970;48.774;9.280;2023-02-05T14:33:43;5.00;99.90
56103;DHT22;41970;48.774;9.280;2023-02-05T14:41:42;4.90;99.90
56103;DHT22;41970;48.774;9.280;2023-02-05T14:46:43;4.90;99.90
56103;DHT22;41970;48.774;9.280;2023-02-05T14:49:26;4.80;99.90
56103;DHT22;41970;48.774;9.280;2023-02-05T14:52:02;4.90;99.90
56103;DHT22;41970;48.774;9.280;2023-02-05T14:54:45;5.00;99.90
56103;DHT22;41970;48.774;9.280;2023-02-05T14:57:19;5.00;99.90
56103;DHT22;41970;48.774;9.280;2023-02-05T14:59:53;4.80;99.90
56103;DHT22;41970;48.774;9.280;2023-02-05T15:08:24;4.80;99.90
56103;DHT22;41970;48.774;9.280;2023-02-05T15:10:55;4.80;99.90
56103;DHT22;41970;48.774;9.280;2023-02-05T15:13:23;4.90;99.90
56103;DHT22;41970;48.774;9.280;2023-02-05T15:18:49;4.80;99.90
56103;DHT22;41970;48.774;9.280;2023-02-05T15:21:31;4.70;99.90
56103;DHT22;41970;48.774;9.280;2023-02-05T15:24:12;4.70;99.90
56103;DHT22;41970;48.774;9.280;2023-02-05T15:26:56;4.70;99.90
56103;DHT22;41970;48.774;9.280;2023-02-05T15:29:41;4.70;99.90
56103;DHT22;41970;48.774;9.280;2023-02-05T15:34:48;4.60;99.90
56103;DHT22;41970;48.774;9.280;2023-02-05T15:37:20;4.60;99.90
56103;DHT22;41970;48.774;9.280;2023-02-05T15:39:54;4.50;99.90
56103;DHT22;41970;48.774;9.280;2023-02-05T15:42:42;4.60;99.90
56103;DHT22;41970;48.774;9.280;2023-02-05T15:45:35;4.50;99.90
56103;DHT22;41970;48.774;9.280;2023-02-05T15:50:56;4.60;99.90
56103;DHT22;41970;48.774;9.280;2023-02-05T15:55:59;4.70;99.90
56103;DHT22;41970;48.774;9.280;2023-02-05T15:58:26;4.70;99.90
56103;DHT22;41970;48.774;9.280;2023-02-05T16:00:52;4.70;99.90
56103;DHT22;41970;48.774;9.280;2023-02-05T16:03:31;4.80;99.90
56103;DHT22;41970;48.774;9.280;2023-02-05T16:05:58;4.80;99.90
56103;DHT22;41970;48.774;9.280;2023-02-05T16:08:24;4.80;99.90
56103;DHT22;41970;48.774;9.280;2023-02-05T16:11:01;4.70;99.90
56103;DHT22;41970;48.774;9.280;2023-02-05T16:13:29;4.80;99.90
56103;DHT22;41970;48.774;9.280;2023-02-05T16:16:06;4.80;99.90
56103;DHT22;41970;48.774;9.280;2023-02-05T16:18:53;4.70;99.90
56103;DHT22;41970;48.774;9.280;2023-02-05T16:21:33;4.60;99.90
56103;DHT22;41970;48.774;9.280;2023-02-05T16:24:03;4.70;99.90
56103;DHT22;41970;48.774;9.280;2023-02-05T16:26:51;4.70;99.90
56103;DHT22;41970;48.774;9.280;2023-02-05T16:29:29;4.70;99.90
56103;DHT22;41970;48.774;9.280;2023-02-05T16:32:38;4.80;99.90
56103;DHT22;41970;48.774;9.280;2023-02-05T16:35:07;4.80;99.90
56103;DHT22;41970;48.774;9.280;2023-02-05T16:37:38;4.70;99.90
56103;DHT22;41970;48.774;9.280;2023-02-05T16:40:04;4.80;99.90
56103;DHT22;41970;48.774;9.280;2023-02-05T16:42:36;4.90;99.90
56103;DHT22;41970;48.774;9.280;2023-02-05T16:45:22;4.90;99.90
56103;DHT22;41970;48.774;9.280;2023-02-05T16:48:23;4.80;99.90
56103;DHT22;41970;48.774;9.280;2023-02-05T16:50:50;4.80;99.90
56103;DHT22;41970;48.774;9.280;2023-02-05T16:53:21;4.80;99.90
56103;DHT22;41970;48.774;9.280;2023-02-05T16:55:49;4.80;99.90
56103;DHT22;41970;48.774;9.280;2023-02-05T16:58:20;4.80;99.90
56103;DHT22;41970;48.774;9.280;2023-02-05T17:00:58;4.80;99.90
56103;DHT22;41970;48.774;9.280;2023-02-05T17:03:37;4.80;99.90
56103;DHT22;41970;48.774;9.280;2023-02-05T17:06:06;4.70;99.90
56103;DHT22;41970;48.774;9.280;2023-02-05T17:08:35;4.80;99.90
56103;DHT22;41970;48.774;9.280;2023-02-05T17:11:06;4.80;99.90
56103;DHT22;41970;48.774;9.280;2023-02-05T17:13:43;4.70;99.90
56103;DHT22;41970;48.774;9.280;2023-02-05T17:16:27;4.80;99.90
56103;DHT22;41970;48.774;9.280;2023-02-05T17:18:57;4.90;99.90
56103;DHT22;41970;48.774;9.280;2023-02-05T17:21:34;4.80;99.90
56103;DHT22;41970;48.774;9.280;2023-02-05T17:24:01;4.80;99.90
56103;DHT22;41970;48.774;9.280;2023-02-05T17:26:32;4.80;99.90
56103;DHT22;41970;48.774;9.280;2023-02-05T17:29:01;4.90;99.90
56103;DHT22;41970;48.774;9.280;2023-02-05T17:31:29;4.80;99.90
56103;DHT22;41970;48.774;9.280;2023-02-05T17:33:57;4.90;99.90
56103;DHT22;41970;48.774;9.280;2023-02-05T17:36:23;4.90;99.90
56103;DHT22;41970;48.774;9.280;2023-02-05T17:38:49;4.80;99.90
56103;DHT22;41970;48.774;9.280;2023-02-05T17:41:31;4.80;99.90
56103;DHT22;41970;48.774;9.280;2023-02-05T17:44:17;4.80;99.90
56103;DHT22;41970;48.774;9.280;2023-02-05T17:46:43;4.90;99.90
56103;DHT22;41970;48.774;9.280;2023-02-05T17:49:09;4.80;99.90
56103;DHT22;41970;48.774;9.280;2023-02-05T17:51:35;4.80;99.90
56103;DHT22;41970;48.774;9.280;2023-02-05T17:54:19;4.80;99.90
56103;DHT22;41970;48.774;9.280;2023-02-05T17:56:48;4.80;99.90
56103;DHT22;41970;48.774;9.280;2023-02-05T17:59:19;4.80;99.90
56103;DHT22;41970;48.774;9.280;2023-02-05T18:01:46;4.70;99.90
56103;DHT22;41970;48.774;9.280;2023-02-05T18:04:12;4.70;99.90
56103;DHT22;41970;48.774;9.280;2023-02-05T18:06:39;4.60;99.90
56103;DHT22;41970;48.774;9.280;2023-02-05T18:09:05;4.60;99.90
56103;DHT22;41970;48.774;9.280;2023-02-05T18:11:31;4.60;99.90
56103;DHT22;41970;48.774;9.280;2023-02-05T18:13:57;4.50;99.90
56103;DHT22;41970;48.774;9.280;2023-02-05T18:16:23;4.50;99.90
56103;DHT22;41970;48.774;9.280;2023-02-05T18:18:52;4.40;99.90
56103;DHT22;41970;48.774;9.280;2023-02-05T18:21:18;4.40;99.90
56103;DHT22;41970;48.774;9.280;2023-02-05T18:23:46;4.40;99.90
56103;DHT22;41970;48.774;9.280;2023-02-05T18:26:13;4.40;99.90
56103;DHT22;41970;48.774;9.280;2023-02-05T18:28:39;4.30;99.90
56103;DHT22;41970;48.774;9.280;2023-02-05T18:31:07;4.30;99.90
56103;DHT22;41970;48.774;9.280;2023-02-05T18:33:33;4.30;99.90
56103;DHT22;41970;48.774;9.280;2023-02-05T18:36:04;4.30;99.90
56103;DHT22;41970;48.774;9.280;2023-02-05T18:38:33;4.30;99.90
56103;DHT22;41970;48.774;9.280;2023-02-05T18:41:07;4.20;99.90
56103;DHT22;41970;48.774;9.280;2023-02-05T18:43:34;4.20;99.90
56103;DHT22;41970;48.774;9.280;2023-02-05T18:46:09;4.10;99.90